createdAt,value
2023-04-19T00:00:09.986Z,12.10
2023-04-19T00:02:38.465Z,12.63
2023-04-19T00:05:06.466Z,13.30
2023-04-19T00:07:33.509Z,13.50
2023-04-19T00:10:00.358Z,13.10
2023-04-19T00:12:27.276Z,12.80
2023-04-19T00:14:54.110Z,13.10
2023-04-19T00:17:21.432Z,13.00
2023-04-19T00:19:48.517Z,13.83
2023-04-19T00:22:15.687Z,12.70
2023-04-19T00:24:42.548Z,12.23
2023-04-19T00:27:09.484Z,11.83
2023-04-19T00:29:36.354Z,13.43
2023-04-19T00:32:05.875Z,13.03
2023-04-19T00:34:32.898Z,13.23
2023-04-19T00:36:59.850Z,12.17
2023-04-19T00:39:26.785Z,13.70
2023-04-19T00:41:53.674Z,13.13
2023-04-19T00:44:20.858Z,13.80
2023-04-19T00:46:48.266Z,13.73
2023-04-19T00:49:17.999Z,13.33
2023-04-19T00:51:45.037Z,12.93
2023-04-19T00:54:12.987Z,13.53
2023-04-19T00:56:40.977Z,13.33
2023-04-19T00:59:07.973Z,13.87
2023-04-19T01:01:34.950Z,12.67
2023-04-19T01:04:02.363Z,12.63
2023-04-19T01:06:30.638Z,12.80
2023-04-19T01:08:58.346Z,13.47
2023-04-19T01:11:25.669Z,13.47
2023-04-19T01:13:52.661Z,14.17
2023-04-19T01:16:19.644Z,14.40
2023-04-19T01:18:46.640Z,14.33
2023-04-19T01:21:13.527Z,13.97
2023-04-19T01:23:40.481Z,14.27
2023-04-19T01:26:07.366Z,13.00
2023-04-19T01:28:34.329Z,14.10
2023-04-19T01:31:01.258Z,13.20
2023-04-19T01:33:28.176Z,14.47
2023-04-19T01:35:55.108Z,14.10
2023-04-19T01:38:22.042Z,14.43
2023-04-19T01:40:48.954Z,13.80
2023-04-19T01:43:18.649Z,13.83
2023-04-19T01:45:46.020Z,14.50
2023-04-19T01:48:12.877Z,13.83
2023-04-19T01:50:39.767Z,14.37
2023-04-19T01:53:06.658Z,15.07
2023-04-19T01:55:33.604Z,13.87
2023-04-19T01:58:00.502Z,14.40
2023-04-19T02:00:28.780Z,14.03
2023-04-19T02:02:55.849Z,14.20
2023-04-19T02:05:22.907Z,15.53
2023-04-19T02:07:49.832Z,15.13
2023-04-19T02:10:16.717Z,14.43
2023-04-19T02:12:43.613Z,13.60
2023-04-19T02:15:10.842Z,14.97
2023-04-19T02:17:38.893Z,14.80
2023-04-19T02:20:08.278Z,14.70
2023-04-19T02:22:35.365Z,14.73
2023-04-19T02:25:02.358Z,13.77
2023-04-19T02:27:31.271Z,13.97
2023-04-19T02:29:58.151Z,13.63
2023-04-19T02:32:25.151Z,14.30
2023-04-19T02:34:52.165Z,13.73
2023-04-19T02:37:19.093Z,14.43
2023-04-19T02:39:46.343Z,13.63
2023-04-19T02:42:13.473Z,13.60
2023-04-19T02:44:40.443Z,13.53
2023-04-19T02:47:08.184Z,15.53
2023-04-19T02:49:37.113Z,14.47
2023-04-19T02:52:04.827Z,15.10
2023-04-19T02:54:33.812Z,14.10
2023-04-19T02:57:01.221Z,13.67
2023-04-19T02:59:28.321Z,14.67
2023-04-19T03:01:58.078Z,13.77
2023-04-19T03:04:25.871Z,13.67
2023-04-19T03:06:53.972Z,13.03
2023-04-19T03:09:21.226Z,14.70
2023-04-19T03:11:48.149Z,14.53
2023-04-19T03:14:16.832Z,14.93
2023-04-19T03:16:43.794Z,14.60
2023-04-19T03:19:10.922Z,14.70
2023-04-19T03:21:45.305Z,15.13
2023-04-19T03:24:12.410Z,15.60
2023-04-19T03:26:43.872Z,13.97
2023-04-19T03:29:11.150Z,15.63
2023-04-19T03:31:48.666Z,14.70
2023-04-19T03:34:15.943Z,14.73
2023-04-19T03:36:46.332Z,14.37
2023-04-19T03:39:13.196Z,14.90
2023-04-19T03:41:41.996Z,15.83
2023-04-19T03:44:17.469Z,15.83
2023-04-19T03:46:46.762Z,14.50
2023-04-19T03:49:16.351Z,15.53
2023-04-19T03:51:46.717Z,16.03
2023-04-19T03:54:13.800Z,16.10
2023-04-19T03:56:41.078Z,15.30
2023-04-19T03:59:09.020Z,14.97
2023-04-19T04:01:42.151Z,14.57
2023-04-19T04:04:09.681Z,14.27
2023-04-19T04:06:36.755Z,14.83
2023-04-19T04:09:04.090Z,14.47
2023-04-19T04:11:31.426Z,15.43
2023-04-19T04:13:58.628Z,13.20
2023-04-19T04:16:31.843Z,13.27
2023-04-19T04:18:58.807Z,14.27
2023-04-19T04:21:28.292Z,15.47
2023-04-19T04:23:58.730Z,15.13
2023-04-19T04:26:39.404Z,14.67
2023-04-19T04:29:17.513Z,14.03
2023-04-19T04:31:45.415Z,14.10
2023-04-19T04:34:14.531Z,14.53
2023-04-19T04:36:50.660Z,16.00
2023-04-19T04:39:19.357Z,14.63
2023-04-19T04:41:47.972Z,14.70
2023-04-19T04:44:15.494Z,14.47
2023-04-19T04:46:44.225Z,15.37
2023-04-19T04:49:13.989Z,14.37
2023-04-19T04:51:43.276Z,14.47
2023-04-19T04:54:10.720Z,14.23
2023-04-19T04:56:38.186Z,14.13
2023-04-19T04:59:05.721Z,13.97
2023-04-19T05:01:36.964Z,12.33
2023-04-19T05:04:04.475Z,13.57
2023-04-19T05:06:32.800Z,14.17
2023-04-19T05:08:59.669Z,14.00
2023-04-19T05:11:32.630Z,13.17
2023-04-19T05:13:59.627Z,13.93
2023-04-19T05:16:27.367Z,13.57
2023-04-19T05:18:55.467Z,13.50
2023-04-19T05:21:23.692Z,13.43
2023-04-19T05:23:53.582Z,14.67
2023-04-19T05:26:21.569Z,14.53
2023-04-19T05:28:50.214Z,13.37
2023-04-19T05:31:26.454Z,13.80
2023-04-19T05:34:09.705Z,14.07
2023-04-19T05:36:36.943Z,13.10
2023-04-19T05:39:04.441Z,13.27
2023-04-19T05:41:31.325Z,14.07
2023-04-19T05:43:58.214Z,13.07
2023-04-19T05:46:26.167Z,13.00
2023-04-19T05:48:53.626Z,13.00
2023-04-19T05:51:39.160Z,12.67
2023-04-19T05:54:12.694Z,13.20
2023-04-19T05:56:50.370Z,13.90
2023-04-19T05:59:17.349Z,12.30
2023-04-19T06:01:44.410Z,13.20
2023-04-19T06:04:12.323Z,13.53
2023-04-19T06:06:39.802Z,13.63
2023-04-19T06:09:07.224Z,12.70
2023-04-19T06:11:43.005Z,12.97
2023-04-19T06:14:14.841Z,12.70
2023-04-19T06:16:42.651Z,13.53
2023-04-19T06:19:09.454Z,14.03
2023-04-19T06:21:36.455Z,12.77
2023-04-19T06:24:03.607Z,12.83
2023-04-19T06:26:30.584Z,13.70
2023-04-19T06:28:57.468Z,14.33
2023-04-19T06:31:24.565Z,14.13
2023-04-19T06:33:51.757Z,14.40
2023-04-19T06:36:18.678Z,13.73
2023-04-19T06:38:46.301Z,13.50
2023-04-19T06:41:13.300Z,13.70
2023-04-19T06:43:40.974Z,12.77
2023-04-19T06:46:08.309Z,13.90
2023-04-19T06:48:35.559Z,13.60
2023-04-19T06:51:02.456Z,14.23
2023-04-19T06:53:29.280Z,13.50
2023-04-19T06:56:01.748Z,15.20
2023-04-19T06:58:29.037Z,13.43
2023-04-19T07:00:56.239Z,14.27
2023-04-19T07:03:23.308Z,13.63
2023-04-19T07:05:52.256Z,13.37
2023-04-19T07:08:19.100Z,13.40
2023-04-19T07:10:45.963Z,13.53
2023-04-19T07:13:12.913Z,13.63
2023-04-19T07:15:39.881Z,14.47
2023-04-19T07:18:07.130Z,14.23
2023-04-19T07:20:34.253Z,13.47
2023-04-19T07:23:01.125Z,13.93
2023-04-19T07:25:28.042Z,13.43
2023-04-19T07:27:56.429Z,13.80
2023-04-19T07:30:23.355Z,13.90
2023-04-19T07:32:51.873Z,13.80
2023-04-19T07:35:19.533Z,13.30
2023-04-19T07:37:46.664Z,14.20
2023-04-19T07:40:14.024Z,13.60
2023-04-19T07:42:43.809Z,13.77
2023-04-19T07:45:11.030Z,13.03
2023-04-19T07:47:37.971Z,12.77
2023-04-19T07:50:07.611Z,13.87
2023-04-19T07:52:34.534Z,14.37
2023-04-19T07:55:01.631Z,12.30
2023-04-19T07:57:28.446Z,12.53
2023-04-19T07:59:58.018Z,12.97
2023-04-19T08:02:28.210Z,13.60
2023-04-19T08:04:55.510Z,12.37
2023-04-19T08:07:23.555Z,13.30
2023-04-19T08:09:50.502Z,12.77
2023-04-19T08:12:32.665Z,12.53
2023-04-19T08:15:14.878Z,12.60
2023-04-19T08:17:47.201Z,13.07
2023-04-19T08:20:14.561Z,13.47
2023-04-19T08:22:41.573Z,12.97
2023-04-19T08:25:09.335Z,13.20
2023-04-19T08:27:36.333Z,13.97
2023-04-19T08:30:03.757Z,13.43
2023-04-19T08:32:30.646Z,12.90
2023-04-19T08:34:57.596Z,12.90
2023-04-19T08:37:24.554Z,12.93
2023-04-19T08:39:51.437Z,11.87
2023-04-19T08:45:13.572Z,11.93
2023-04-19T08:50:24.031Z,11.97
2023-04-19T08:55:28.900Z,12.57
2023-04-19T08:57:56.851Z,11.97
2023-04-19T09:00:23.782Z,13.23
2023-04-19T09:02:56.751Z,12.47
2023-04-19T09:05:24.060Z,13.00
2023-04-19T09:07:51.650Z,13.30
2023-04-19T09:10:20.128Z,12.67
2023-04-19T09:13:07.275Z,14.27
2023-04-19T09:15:39.178Z,11.70
2023-04-19T09:18:10.305Z,12.10
2023-04-19T09:20:38.667Z,12.50
2023-04-19T09:23:08.556Z,11.73
2023-04-19T09:25:52.919Z,12.27
2023-04-19T09:28:22.897Z,12.53
2023-04-19T09:31:00.563Z,12.30
2023-04-19T09:33:40.875Z,13.00
2023-04-19T09:36:08.504Z,12.67
2023-04-19T09:38:49.119Z,11.97
2023-04-19T09:41:19.755Z,13.10
2023-04-19T09:44:07.406Z,13.33
2023-04-19T09:46:36.225Z,12.80
2023-04-19T09:49:33.816Z,13.40
2023-04-19T09:52:13.517Z,12.27
2023-04-19T09:54:41.551Z,13.03
2023-04-19T09:57:08.711Z,12.93
2023-04-19T09:59:35.783Z,13.00
2023-04-19T10:02:05.069Z,13.67
2023-04-19T10:04:49.916Z,13.07
2023-04-19T10:07:30.099Z,13.13
2023-04-19T10:10:11.679Z,13.03
2023-04-19T10:13:11.067Z,12.10
2023-04-19T10:15:50.113Z,12.50
2023-04-19T10:18:19.719Z,12.40
2023-04-19T10:20:58.412Z,13.00
2023-04-19T10:23:25.398Z,13.60
2023-04-19T10:25:57.582Z,13.23
2023-04-19T10:28:24.960Z,14.90
2023-04-19T10:30:58.554Z,13.17
2023-04-19T10:33:36.841Z,13.70
2023-04-19T10:36:04.135Z,14.50
2023-04-19T10:38:39.807Z,13.63
2023-04-19T10:41:13.624Z,13.20
2023-04-19T10:44:05.380Z,13.80
2023-04-19T10:46:32.824Z,14.73
2023-04-19T10:49:01.366Z,14.27
2023-04-19T10:51:33.123Z,15.00
2023-04-19T10:54:01.834Z,15.67
2023-04-19T10:56:34.722Z,15.20
2023-04-19T10:59:01.833Z,15.00
2023-04-19T11:01:43.089Z,14.67
2023-04-19T11:04:15.206Z,16.33
2023-04-19T11:06:53.985Z,16.43
2023-04-19T11:09:24.912Z,16.33
2023-04-19T11:11:53.658Z,16.40
2023-04-19T11:14:25.256Z,16.03
2023-04-19T11:16:52.183Z,16.37
2023-04-19T11:19:19.912Z,15.97
2023-04-19T11:21:47.889Z,15.97
2023-04-19T11:24:18.599Z,16.10
2023-04-19T11:26:46.375Z,16.23
2023-04-19T11:29:13.650Z,15.80
2023-04-19T11:31:43.747Z,14.50
2023-04-19T11:34:10.629Z,13.70
2023-04-19T11:36:47.975Z,14.20
2023-04-19T11:39:14.756Z,13.33
2023-04-19T11:41:41.581Z,13.60
2023-04-19T11:44:15.960Z,13.20
2023-04-19T11:46:43.882Z,12.37
2023-04-19T11:49:10.788Z,13.13
2023-04-19T11:51:42.733Z,12.73
2023-04-19T11:54:15.034Z,12.37
2023-04-19T11:57:01.621Z,12.37
2023-04-19T11:59:29.468Z,12.90
2023-04-19T12:01:56.352Z,13.40
2023-04-19T12:04:23.583Z,14.43
2023-04-19T12:07:00.801Z,14.37
2023-04-19T12:09:27.711Z,15.70
2023-04-19T12:11:54.583Z,15.57
2023-04-19T12:14:23.406Z,15.43
2023-04-19T12:17:16.856Z,16.57
2023-04-19T12:19:46.526Z,15.87
2023-04-19T12:22:20.610Z,15.07
2023-04-19T12:24:47.512Z,14.20
2023-04-19T12:27:17.898Z,15.30
2023-04-19T12:29:45.012Z,15.40
2023-04-19T12:32:13.000Z,15.97
2023-04-19T12:34:39.901Z,14.50
2023-04-19T12:37:06.828Z,15.23
2023-04-19T12:39:33.649Z,13.87
2023-04-19T12:42:01.426Z,13.37
2023-04-19T12:44:28.304Z,12.90
2023-04-19T12:46:57.584Z,13.50
2023-04-19T12:49:24.727Z,12.43
2023-04-19T12:51:51.575Z,12.27
2023-04-19T12:54:18.478Z,12.03
2023-04-19T12:56:45.426Z,11.43
2023-04-19T12:59:12.309Z,11.70
2023-04-19T13:01:39.211Z,11.80
2023-04-19T13:04:07.904Z,11.43
2023-04-19T13:06:34.946Z,11.67
2023-04-19T13:09:01.840Z,11.00
2023-04-19T13:11:31.386Z,11.90
2023-04-19T13:13:58.246Z,11.50
2023-04-19T13:16:25.335Z,11.50
2023-04-19T13:18:54.608Z,10.80
2023-04-19T13:21:23.034Z,11.87
2023-04-19T13:23:50.038Z,11.23
2023-04-19T13:26:16.939Z,11.40
2023-04-19T13:28:43.861Z,11.37
2023-04-19T13:31:10.825Z,11.37
2023-04-19T13:33:37.769Z,11.50
2023-04-19T13:36:04.825Z,11.10
2023-04-19T13:38:31.722Z,11.70
2023-04-19T13:40:59.720Z,12.40
2023-04-19T13:43:26.861Z,11.57
2023-04-19T13:45:54.111Z,10.60
2023-04-19T13:48:21.157Z,11.63
2023-04-19T13:50:50.468Z,10.53
2023-04-19T13:53:18.049Z,11.57
2023-04-19T13:55:44.907Z,12.17
2023-04-19T13:58:11.938Z,12.67
2023-04-19T14:00:39.508Z,11.93
2023-04-19T14:03:06.688Z,11.60
2023-04-19T14:05:33.787Z,11.67
2023-04-19T14:08:00.811Z,11.30
2023-04-19T14:10:27.879Z,11.57
2023-04-19T14:12:54.775Z,11.47
2023-04-19T14:15:23.539Z,11.60
2023-04-19T14:17:50.430Z,11.50
2023-04-19T14:20:17.463Z,12.17
2023-04-19T14:22:45.847Z,10.87
2023-04-19T14:25:15.027Z,10.87
2023-04-19T14:27:42.013Z,10.77
2023-04-19T14:30:09.851Z,11.50
2023-04-19T14:32:37.349Z,11.63
2023-04-19T14:35:04.577Z,11.70
2023-04-19T14:37:31.816Z,12.40
2023-04-19T14:39:58.754Z,11.57
2023-04-19T14:42:25.965Z,11.10
2023-04-19T14:44:52.906Z,10.70
2023-04-19T14:47:20.934Z,10.67
2023-04-19T14:49:47.802Z,11.43
2023-04-19T14:52:14.629Z,10.73
2023-04-19T14:54:42.265Z,11.30
2023-04-19T14:57:09.606Z,10.97
2023-04-19T14:59:36.666Z,11.00
2023-04-19T15:02:03.726Z,11.87
2023-04-19T15:04:30.700Z,11.80
2023-04-19T15:06:57.651Z,11.07
2023-04-19T15:09:24.690Z,11.47
2023-04-19T15:11:51.607Z,11.07
2023-04-19T15:14:19.799Z,11.97
2023-04-19T15:16:46.977Z,10.17
2023-04-19T15:19:13.917Z,10.33
2023-04-19T15:21:40.940Z,8.97
2023-04-19T15:24:08.237Z,9.80
2023-04-19T15:26:35.746Z,8.70
2023-04-19T15:29:02.808Z,8.50
2023-04-19T15:31:31.019Z,7.23
2023-04-19T15:34:02.439Z,7.00
2023-04-19T15:36:29.572Z,6.63
2023-04-19T15:38:57.082Z,6.10
2023-04-19T15:41:24.113Z,5.77
2023-04-19T15:43:51.241Z,4.90
2023-04-19T15:46:19.012Z,3.73
2023-04-19T15:48:48.235Z,3.60
2023-04-19T15:51:15.476Z,3.30
2023-04-19T15:53:42.958Z,2.77
2023-04-19T15:56:10.583Z,2.90
2023-04-19T15:58:37.745Z,2.63
2023-04-19T16:01:07.861Z,2.93
2023-04-19T16:03:34.824Z,3.40
2023-04-19T16:06:01.704Z,2.97
2023-04-19T16:08:28.482Z,2.67
2023-04-19T16:10:55.424Z,2.83
2023-04-19T16:13:22.209Z,2.70
2023-04-19T16:15:49.035Z,2.50
2023-04-19T16:18:15.964Z,2.57
2023-04-19T16:20:42.910Z,2.43
2023-04-19T16:23:09.853Z,2.43
2023-04-19T16:25:36.681Z,2.90
2023-04-19T16:28:03.675Z,2.50
2023-04-19T16:30:30.916Z,2.67
2023-04-19T16:32:58.585Z,2.60
2023-04-19T16:35:26.509Z,2.80
2023-04-19T16:37:55.842Z,2.50
2023-04-19T16:40:24.226Z,2.40
2023-04-19T16:42:51.160Z,2.33
2023-04-19T16:45:18.231Z,2.40
2023-04-19T16:47:46.200Z,2.80
2023-04-19T16:50:14.153Z,2.53
2023-04-19T16:52:41.399Z,2.60
2023-04-19T16:55:09.328Z,3.00
2023-04-19T16:57:36.834Z,3.17
2023-04-19T17:00:05.788Z,3.00
2023-04-19T17:02:33.563Z,3.03
2023-04-19T17:05:00.987Z,2.90
2023-04-19T17:07:28.321Z,3.10
2023-04-19T17:09:55.781Z,3.60
2023-04-19T17:12:22.917Z,3.27
2023-04-19T17:14:49.944Z,3.20
2023-04-19T17:17:19.863Z,3.40
2023-04-19T17:19:46.996Z,3.70
2023-04-19T17:22:17.055Z,3.70
2023-04-19T17:24:43.917Z,3.30
2023-04-19T17:27:11.657Z,3.80
2023-04-19T17:29:38.704Z,3.77
2023-04-19T17:32:06.722Z,3.63
2023-04-19T17:34:36.037Z,3.33
2023-04-19T17:37:03.519Z,3.43
2023-04-19T17:39:30.417Z,3.40
2023-04-19T17:41:57.312Z,3.20
2023-04-19T17:44:24.581Z,3.73
2023-04-19T17:46:51.458Z,3.57
2023-04-19T17:49:20.143Z,3.40
2023-04-19T17:51:47.552Z,3.60
2023-04-19T17:54:15.840Z,3.63
2023-04-19T17:56:42.898Z,3.30
2023-04-19T17:59:09.831Z,3.40
2023-04-19T18:01:36.802Z,3.57
2023-04-19T18:04:04.511Z,4.23
2023-04-19T18:06:31.793Z,4.40
2023-04-19T18:08:58.918Z,4.30
2023-04-19T18:11:28.320Z,4.60
2023-04-19T18:13:55.837Z,5.17
2023-04-19T18:16:22.965Z,4.47
2023-04-19T18:18:49.987Z,5.00
2023-04-19T18:21:18.475Z,4.40
2023-04-19T18:23:45.531Z,4.97
2023-04-19T18:26:12.362Z,5.00
2023-04-19T18:28:39.740Z,4.80
2023-04-19T18:31:07.975Z,5.10
2023-04-19T18:33:35.311Z,4.60
2023-04-19T18:36:02.141Z,4.60
2023-04-19T18:38:29.215Z,4.07
2023-04-19T18:40:56.109Z,3.77
2023-04-19T18:43:24.525Z,3.67
2023-04-19T18:45:58.009Z,3.23
2023-04-19T18:48:28.138Z,3.60
2023-04-19T18:50:56.916Z,3.40
2023-04-19T18:53:25.188Z,3.80
2023-04-19T18:55:57.440Z,3.13
2023-04-19T18:58:28.390Z,3.97
2023-04-19T19:00:56.012Z,4.10
2023-04-19T19:03:41.757Z,3.30
2023-04-19T19:06:10.867Z,3.47
2023-04-19T19:08:37.923Z,3.37
2023-04-19T19:13:35.798Z,3.87
2023-04-19T19:16:02.928Z,3.40
2023-04-19T19:18:29.851Z,3.40
2023-04-19T19:21:03.233Z,3.30
2023-04-19T19:23:35.701Z,3.20
2023-04-19T19:26:03.934Z,3.10
2023-04-19T19:28:30.791Z,3.43
2023-04-19T19:30:57.668Z,3.17
2023-04-19T19:33:24.448Z,3.90
2023-04-19T19:35:51.275Z,3.50
2023-04-19T19:38:18.117Z,3.33
2023-04-19T19:43:14.730Z,3.70
2023-04-19T19:45:41.833Z,3.40
2023-04-19T19:48:09.003Z,4.20
2023-04-19T19:51:07.356Z,3.70
2023-04-19T19:53:22.731Z,3.63
2023-04-19T19:55:50.067Z,3.53
2023-04-19T19:58:42.921Z,3.83
2023-04-19T20:01:03.710Z,4.00
2023-04-19T20:03:37.619Z,3.57
2023-04-19T20:08:41.156Z,3.87
2023-04-19T20:11:11.005Z,3.67
2023-04-19T20:13:37.793Z,4.10
2023-04-19T20:16:04.733Z,3.90
2023-04-19T20:18:32.277Z,4.10
2023-04-19T20:20:59.293Z,3.97
2023-04-19T20:23:26.449Z,4.10
2023-04-19T20:25:53.309Z,3.20
2023-04-19T20:28:20.276Z,3.90
2023-04-19T20:30:47.539Z,3.73
2023-04-19T20:33:14.438Z,3.83
2023-04-19T20:35:42.022Z,4.00
2023-04-19T20:38:09.698Z,4.10
2023-04-19T20:40:36.619Z,4.30
2023-04-19T20:43:03.497Z,4.03
2023-04-19T20:45:31.315Z,4.13
2023-04-19T20:47:58.741Z,4.60
2023-04-19T20:50:25.884Z,4.10
2023-04-19T20:52:52.890Z,4.23
2023-04-19T20:55:19.754Z,4.60
2023-04-19T20:57:46.864Z,5.03
2023-04-19T21:00:16.693Z,4.80
2023-04-19T21:02:44.431Z,4.90
2023-04-19T21:05:11.794Z,4.67
2023-04-19T21:07:38.704Z,4.43
2023-04-19T21:10:06.417Z,4.70
2023-04-19T21:12:34.396Z,4.70
2023-04-19T21:15:01.286Z,4.70
2023-04-19T21:17:28.194Z,4.70
2023-04-19T21:19:55.155Z,4.87
2023-04-19T21:22:22.049Z,4.87
2023-04-19T21:24:49.005Z,5.10
2023-04-19T21:27:15.927Z,5.20
2023-04-19T21:29:42.744Z,4.90
2023-04-19T21:32:10.435Z,5.30
2023-04-19T21:34:38.332Z,5.07
2023-04-19T21:37:05.233Z,5.10
2023-04-19T21:39:32.138Z,5.60
2023-04-19T21:41:59.047Z,5.33
2023-04-19T21:44:25.868Z,5.03
2023-04-19T21:46:52.775Z,5.30
2023-04-19T21:49:19.712Z,5.10
2023-04-19T21:51:46.533Z,5.20
2023-04-19T21:54:20.298Z,5.17
2023-04-19T21:56:53.784Z,5.57
2023-04-19T21:59:20.597Z,5.27
2023-04-19T22:01:47.468Z,5.70
2023-04-19T22:04:15.234Z,5.00
2023-04-19T22:06:45.968Z,5.80
2023-04-19T22:09:13.637Z,5.30
2023-04-19T22:11:40.476Z,5.60
2023-04-19T22:14:07.844Z,5.80
2023-04-19T22:16:35.306Z,5.33
2023-04-19T22:19:03.297Z,5.40
2023-04-19T22:21:30.984Z,5.37
2023-04-19T22:23:57.907Z,5.40
2023-04-19T22:26:26.196Z,5.17
2023-04-19T22:28:54.166Z,5.77
2023-04-19T22:31:21.048Z,5.40
2023-04-19T22:33:48.083Z,5.80
2023-04-19T22:36:14.911Z,5.17
2023-04-19T22:38:41.732Z,5.47
2023-04-19T22:41:08.581Z,5.13
2023-04-19T22:43:35.565Z,5.17
2023-04-19T22:46:03.719Z,5.70
2023-04-19T22:48:31.569Z,5.03
2023-04-19T22:50:59.944Z,5.70
2023-04-19T22:53:26.785Z,5.10
2023-04-19T22:55:53.599Z,5.07
2023-04-19T22:58:20.426Z,5.60
2023-04-19T23:00:47.383Z,5.70
2023-04-19T23:03:14.216Z,5.40
2023-04-19T23:05:41.780Z,5.40
2023-04-19T23:08:09.328Z,5.57
2023-04-19T23:10:38.985Z,5.00
2023-04-19T23:13:06.820Z,5.60
2023-04-19T23:15:34.462Z,5.03
2023-04-19T23:18:03.747Z,5.53
2023-04-19T23:20:30.783Z,5.13
2023-04-19T23:22:57.582Z,5.00
2023-04-19T23:25:25.116Z,5.40
2023-04-19T23:27:52.022Z,5.00
2023-04-19T23:30:19.394Z,5.67
2023-04-19T23:32:46.272Z,5.30
2023-04-19T23:35:13.196Z,5.40
2023-04-19T23:37:41.011Z,5.50
2023-04-19T23:40:09.224Z,5.47
2023-04-19T23:42:39.225Z,5.47
2023-04-19T23:45:06.841Z,5.33
2023-04-19T23:47:34.265Z,5.17
2023-04-19T23:50:01.204Z,5.27
2023-04-19T23:52:28.220Z,6.17
2023-04-19T23:54:55.074Z,5.40
2023-04-19T23:57:21.859Z,5.37
2023-04-19T23:59:48.707Z,5.73
